Погода Валевкина неделю

Витебская область, Белоруссия

23 - 29 мая
  • 23мая
    Сегодня
    +11°
    +25°
    Практически безоблачно
    ВремяПогодаТемператураВлажностьДавлениеВетер, м/сВероятность осадков
    00:00Облачно с прояснениями+15°C93 %754 мм1.3 м/с10 %
    03:00Ясно и безоблачно+14°C93 %754 мм1.4 м/с2 %
    06:00Ясно и безоблачно+14°C92 %755 мм1.7 м/с2 %
    09:00Ясно и безоблачно+19°C75 %756 мм2.6 м/с2 %
    12:00Ясно и безоблачно+23°C54 %756 мм3.2 м/с2 %
    15:00Практически безоблачно+25°C47 %756 мм3.3 м/с2 %
    18:00Небольшая облачность+24°C46 %756 мм3.1 м/с8 %
    21:00Практически безоблачно+20°C54 %757 мм2.3 м/с2 %
  • 24мая
    Пятница
    +10°
    +23°
    Ясно и безоблачно
    ВремяПогодаТемператураВлажностьДавлениеВетер, м/сВероятность осадков
    00:00Ясно и безоблачно+16°C56 %758 мм2.0 м/с2 %
    03:00Ясно и безоблачно+13°C61 %758 мм1.8 м/с2 %
    06:00Ясно и безоблачно+12°C66 %759 мм1.9 м/с2 %
    09:00Ясно и безоблачно+17°C57 %760 мм2.6 м/с2 %
    12:00Ясно и безоблачно+21°C46 %760 мм2.9 м/с2 %
    15:00Ясно и безоблачно+22°C42 %759 мм2.8 м/с2 %
    18:00Ясно и безоблачно+22°C42 %759 мм2.8 м/с2 %
    21:00Ясно и безоблачно+18°C57 %758 мм1.7 м/с2 %
  • 25мая
    Суббота
    +11°
    +25°
    Практически безоблачно
    ВремяПогодаТемператураВлажностьДавлениеВетер, м/сВероятность осадков
    00:00Ясно и безоблачно+14°C61 %759 мм1.3 м/с2 %
    03:00Ясно и безоблачно+12°C70 %759 мм1.0 м/с2 %
    06:00Ясно и безоблачно+11°C74 %759 мм1.3 м/с2 %
    09:00Практически безоблачно+17°C63 %759 мм1.9 м/с2 %
    12:00Практически безоблачно+22°C49 %759 мм2.3 м/с2 %
    15:00Практически безоблачно+24°C43 %758 мм2.1 м/с2 %
    18:00Ясно и безоблачно+24°C44 %757 мм2.1 м/с4 %
    21:00Ясно и безоблачно+19°C65 %756 мм1.3 м/с2 %
  • 26мая
    Воскресенье
    +13°
    +26°
    Практически безоблачно
    ВремяПогодаТемператураВлажностьДавлениеВетер, м/сВероятность осадков
    00:00Ясно и безоблачно+15°C77 %757 мм0.9 м/с2 %
    03:00Ясно и безоблачно+13°C83 %757 мм0.7 м/с2 %
    06:00Ясно и безоблачно+13°C83 %757 мм0.7 м/с2 %
    09:00Ясно и безоблачно+19°C59 %758 мм0.9 м/с2 %
    12:00Ясно и безоблачно+24°C41 %758 мм1.1 м/с2 %
    15:00Практически безоблачно+25°C39 %757 мм1.0 м/с2 %
    18:00Небольшая облачность+25°C37 %756 мм1.2 м/с2 %
    21:00Практически безоблачно+20°C66 %757 мм1.1 м/с2 %
  • 27мая
    Понедельник
    +14°
    +26°
    Практически безоблачно
    ВремяПогодаТемператураВлажностьДавлениеВетер, м/сВероятность осадков
    00:00Ясно и безоблачно+15°C71 %757 мм0.5 м/с2 %
    03:00Облачно с прояснениями+13°C79 %757 мм0.5 м/с2 %
    06:00Ясно и безоблачно+14°C80 %757 мм0.6 м/с2 %
    09:00Ясно и безоблачно+21°C63 %758 мм0.7 м/с2 %
    12:00Практически безоблачно+25°C47 %758 мм1.4 м/с16 %
    15:00Практически безоблачно+26°C47 %758 мм1.7 м/с18 %
    18:00Практически безоблачно+26°C47 %757 мм1.6 м/с25 %
    21:00Практически безоблачно+21°C79 %757 мм0.8 м/с14 %
Мы используем cookies
Соглашаюсь